Cowlesville, New York
Current Conditions -  °F | °C
As of 5:28 PM on Monday 26 Jan 2015 (Local Time) from KBUF Reporting Station
Light Snow Light Snow  
Wind Chill:   Ceiling: 2800
Heat Index: 18°   Visibility: 2mi
Dew Point: 12°   Wind: 17mph
Humidity: 78%   Direction: 60°ENE
Pressure: 29.9"   Gusts: NA
Location:  42.84°N, 78.47°W
Report Text: KBUF 262228Z 06015KT 2SM -SN FEW015 BKN028 OVC036 M08/M11 A2990 RMK AO2 DRSN P0000 T10781111
Loading
Personal Weather Stations






























Interactive Weather Map New forecast layout! Learn more

10-Day Weather Forecast

Advertisements
Track Severe Weather on mobile